sensor_id;sensor_type;location;lat;lon;timestamp;P1;durP1;ratioP1;P2;durP2;ratioP2
24547;SDS011;12713;51.624;4.924;2023-02-19T00:03:33;23.08;;;9.80;;
24547;SDS011;12713;51.624;4.924;2023-02-19T00:06:00;21.25;;;9.60;;
24547;SDS011;12713;51.624;4.924;2023-02-19T00:08:27;22.80;;;10.43;;
24547;SDS011;12713;51.624;4.924;2023-02-19T00:10:53;29.85;;;10.80;;
24547;SDS011;12713;51.624;4.924;2023-02-19T00:13:19;27.42;;;9.75;;
24547;SDS011;12713;51.624;4.924;2023-02-19T00:15:46;32.38;;;11.30;;
24547;SDS011;12713;51.624;4.924;2023-02-19T00:18:12;24.38;;;9.82;;
24547;SDS011;12713;51.624;4.924;2023-02-19T00:20:38;33.88;;;11.07;;
24547;SDS011;12713;51.624;4.924;2023-02-19T00:23:04;26.60;;;9.30;;
24547;SDS011;12713;51.624;4.924;2023-02-19T00:25:30;27.05;;;9.00;;
24547;SDS011;12713;51.624;4.924;2023-02-19T00:27:56;24.70;;;9.38;;
24547;SDS011;12713;51.624;4.924;2023-02-19T00:30:22;31.42;;;9.25;;
24547;SDS011;12713;51.624;4.924;2023-02-19T00:32:50;29.48;;;8.95;;
24547;SDS011;12713;51.624;4.924;2023-02-19T00:35:16;24.80;;;8.95;;
24547;SDS011;12713;51.624;4.924;2023-02-19T00:37:45;29.23;;;9.05;;
24547;SDS011;12713;51.624;4.924;2023-02-19T00:40:11;29.10;;;9.52;;
24547;SDS011;12713;51.624;4.924;2023-02-19T00:42:37;28.83;;;8.50;;
24547;SDS011;12713;51.624;4.924;2023-02-19T00:45:03;28.83;;;8.90;;
24547;SDS011;12713;51.624;4.924;2023-02-19T00:47:29;29.42;;;8.18;;
24547;SDS011;12713;51.624;4.924;2023-02-19T00:49:55;25.20;;;8.40;;
24547;SDS011;12713;51.624;4.924;2023-02-19T00:52:21;22.33;;;7.00;;
24547;SDS011;12713;51.624;4.924;2023-02-19T00:54:47;26.00;;;8.18;;
24547;SDS011;12713;51.624;4.924;2023-02-19T00:57:13;24.10;;;8.18;;
24547;SDS011;12713;51.624;4.924;2023-02-19T00:59:39;32.15;;;8.02;;
24547;SDS011;12713;51.624;4.924;2023-02-19T01:02:05;26.20;;;6.85;;
24547;SDS011;12713;51.624;4.924;2023-02-19T01:04:31;23.15;;;8.23;;
24547;SDS011;12713;51.624;4.924;2023-02-19T01:06:57;26.58;;;9.10;;
24547;SDS011;12713;51.624;4.924;2023-02-19T01:09:23;29.55;;;7.85;;
24547;SDS011;12713;51.624;4.924;2023-02-19T01:11:49;30.30;;;7.88;;
24547;SDS011;12713;51.624;4.924;2023-02-19T01:14:15;31.58;;;9.70;;
24547;SDS011;12713;51.624;4.924;2023-02-19T01:16:41;21.38;;;7.90;;
24547;SDS011;12713;51.624;4.924;2023-02-19T01:19:07;29.70;;;8.70;;
24547;SDS011;12713;51.624;4.924;2023-02-19T01:21:36;33.13;;;7.82;;
24547;SDS011;12713;51.624;4.924;2023-02-19T01:24:02;24.83;;;6.97;;
24547;SDS011;12713;51.624;4.924;2023-02-19T01:26:29;31.63;;;7.10;;
24547;SDS011;12713;51.624;4.924;2023-02-19T01:28:56;28.95;;;7.95;;
24547;SDS011;12713;51.624;4.924;2023-02-19T01:31:22;26.42;;;8.07;;
24547;SDS011;12713;51.624;4.924;2023-02-19T01:33:50;29.58;;;7.38;;
24547;SDS011;12713;51.624;4.924;2023-02-19T01:36:16;19.67;;;6.10;;
24547;SDS011;12713;51.624;4.924;2023-02-19T01:38:45;32.05;;;7.35;;
24547;SDS011;12713;51.624;4.924;2023-02-19T01:41:13;31.70;;;7.15;;
24547;SDS011;12713;51.624;4.924;2023-02-19T01:44:02;36.85;;;9.15;;
24547;SDS011;12713;51.624;4.924;2023-02-19T01:46:33;27.05;;;7.18;;
24547;SDS011;12713;51.624;4.924;2023-02-19T01:51:34;26.60;;;6.97;;
24547;SDS011;12713;51.624;4.924;2023-02-19T01:54:01;24.38;;;7.18;;
24547;SDS011;12713;51.624;4.924;2023-02-19T01:56:28;28.17;;;6.60;;
24547;SDS011;12713;51.624;4.924;2023-02-19T01:58:55;30.40;;;6.25;;
24547;SDS011;12713;51.624;4.924;2023-02-19T02:01:23;24.38;;;6.95;;
24547;SDS011;12713;51.624;4.924;2023-02-19T02:03:49;31.80;;;7.10;;
24547;SDS011;12713;51.624;4.924;2023-02-19T02:06:26;23.35;;;6.68;;
24547;SDS011;12713;51.624;4.924;2023-02-19T02:09:00;26.83;;;7.15;;
24547;SDS011;12713;51.624;4.924;2023-02-19T02:11:49;27.38;;;7.88;;
24547;SDS011;12713;51.624;4.924;2023-02-19T02:14:16;23.15;;;5.78;;
24547;SDS011;12713;51.624;4.924;2023-02-19T02:22:04;27.83;;;6.53;;
24547;SDS011;12713;51.624;4.924;2023-02-19T02:32:45;22.00;;;5.95;;
24547;SDS011;12713;51.624;4.924;2023-02-19T02:35:17;25.85;;;6.15;;
24547;SDS011;12713;51.624;4.924;2023-02-19T02:37:46;27.98;;;6.72;;
24547;SDS011;12713;51.624;4.924;2023-02-19T02:40:19;29.30;;;6.60;;
24547;SDS011;12713;51.624;4.924;2023-02-19T02:42:46;26.27;;;6.45;;
24547;SDS011;12713;51.624;4.924;2023-02-19T02:45:20;24.30;;;6.05;;
24547;SDS011;12713;51.624;4.924;2023-02-19T02:53:14;30.33;;;6.32;;
24547;SDS011;12713;51.624;4.924;2023-02-19T02:56:01;30.75;;;5.57;;
24547;SDS011;12713;51.624;4.924;2023-02-19T02:58:28;20.17;;;5.82;;
24547;SDS011;12713;51.624;4.924;2023-02-19T03:00:58;30.42;;;5.57;;
24547;SDS011;12713;51.624;4.924;2023-02-19T03:03:44;26.67;;;5.55;;
24547;SDS011;12713;51.624;4.924;2023-02-19T03:06:12;22.60;;;5.00;;
24547;SDS011;12713;51.624;4.924;2023-02-19T03:08:41;22.00;;;5.10;;
24547;SDS011;12713;51.624;4.924;2023-02-19T03:11:10;20.25;;;5.90;;
24547;SDS011;12713;51.624;4.924;2023-02-19T03:14:06;19.98;;;5.15;;
24547;SDS011;12713;51.624;4.924;2023-02-19T03:16:53;22.85;;;4.53;;
24547;SDS011;12713;51.624;4.924;2023-02-19T03:19:40;22.70;;;4.53;;
24547;SDS011;12713;51.624;4.924;2023-02-19T03:22:08;24.88;;;5.47;;
24547;SDS011;12713;51.624;4.924;2023-02-19T03:24:37;20.25;;;4.30;;
24547;SDS011;12713;51.624;4.924;2023-02-19T03:27:31;24.55;;;5.15;;
24547;SDS011;12713;51.624;4.924;2023-02-19T03:30:00;23.75;;;4.50;;
24547;SDS011;12713;51.624;4.924;2023-02-19T03:32:28;28.90;;;5.07;;
24547;SDS011;12713;51.624;4.924;2023-02-19T03:34:59;19.10;;;4.18;;
24547;SDS011;12713;51.624;4.924;2023-02-19T03:37:34;17.20;;;4.55;;
24547;SDS011;12713;51.624;4.924;2023-02-19T03:40:00;16.17;;;3.50;;
24547;SDS011;12713;51.624;4.924;2023-02-19T03:47:42;22.25;;;3.97;;
24547;SDS011;12713;51.624;4.924;2023-02-19T03:52:48;25.58;;;4.45;;
24547;SDS011;12713;51.624;4.924;2023-02-19T03:55:16;18.13;;;3.90;;
24547;SDS011;12713;51.624;4.924;2023-02-19T03:57:50;13.07;;;3.58;;
24547;SDS011;12713;51.624;4.924;2023-02-19T04:00:23;21.98;;;4.15;;
24547;SDS011;12713;51.624;4.924;2023-02-19T04:05:18;21.83;;;4.63;;
24547;SDS011;12713;51.624;4.924;2023-02-19T04:07:47;22.23;;;4.28;;
24547;SDS011;12713;51.624;4.924;2023-02-19T04:10:14;24.83;;;4.45;;
24547;SDS011;12713;51.624;4.924;2023-02-19T04:12:42;18.90;;;4.00;;
24547;SDS011;12713;51.624;4.924;2023-02-19T04:15:16;19.60;;;3.45;;
24547;SDS011;12713;51.624;4.924;2023-02-19T04:17:56;17.92;;;3.95;;
24547;SDS011;12713;51.624;4.924;2023-02-19T04:20:27;25.38;;;4.65;;
24547;SDS011;12713;51.624;4.924;2023-02-19T04:22:53;13.35;;;3.58;;
24547;SDS011;12713;51.624;4.924;2023-02-19T04:25:20;18.20;;;4.68;;
24547;SDS011;12713;51.624;4.924;2023-02-19T04:27:47;21.30;;;4.05;;
24547;SDS011;12713;51.624;4.924;2023-02-19T04:30:13;27.40;;;4.78;;
24547;SDS011;12713;51.624;4.924;2023-02-19T04:32:39;24.20;;;4.65;;
24547;SDS011;12713;51.624;4.924;2023-02-19T04:35:05;19.00;;;4.47;;
24547;SDS011;12713;51.624;4.924;2023-02-19T04:37:35;26.83;;;4.93;;
24547;SDS011;12713;51.624;4.924;2023-02-19T04:40:01;26.45;;;5.45;;
24547;SDS011;12713;51.624;4.924;2023-02-19T04:42:27;23.58;;;4.68;;
24547;SDS011;12713;51.624;4.924;2023-02-19T04:44:53;24.63;;;5.57;;
24547;SDS011;12713;51.624;4.924;2023-02-19T04:47:19;25.20;;;4.95;;
24547;SDS011;12713;51.624;4.924;2023-02-19T04:49:48;22.88;;;4.30;;
24547;SDS011;12713;51.624;4.924;2023-02-19T04:52:17;19.13;;;4.57;;
24547;SDS011;12713;51.624;4.924;2023-02-19T04:54:43;29.83;;;4.90;;
24547;SDS011;12713;51.624;4.924;2023-02-19T04:57:12;28.23;;;4.07;;
24547;SDS011;12713;51.624;4.924;2023-02-19T04:59:38;21.90;;;4.65;;
24547;SDS011;12713;51.624;4.924;2023-02-19T05:02:04;18.75;;;4.20;;
24547;SDS011;12713;51.624;4.924;2023-02-19T05:04:30;30.85;;;5.28;;
24547;SDS011;12713;51.624;4.924;2023-02-19T05:06:56;22.05;;;4.45;;
24547;SDS011;12713;51.624;4.924;2023-02-19T05:09:22;20.30;;;5.00;;
24547;SDS011;12713;51.624;4.924;2023-02-19T05:11:48;26.08;;;4.85;;
24547;SDS011;12713;51.624;4.924;2023-02-19T05:14:14;22.02;;;4.45;;
24547;SDS011;12713;51.624;4.924;2023-02-19T05:16:44;29.77;;;5.32;;
24547;SDS011;12713;51.624;4.924;2023-02-19T05:19:16;28.92;;;5.43;;
24547;SDS011;12713;51.624;4.924;2023-02-19T05:21:43;23.92;;;4.63;;
24547;SDS011;12713;51.624;4.924;2023-02-19T05:24:15;24.77;;;4.68;;
24547;SDS011;12713;51.624;4.924;2023-02-19T05:26:41;31.93;;;5.80;;
24547;SDS011;12713;51.624;4.924;2023-02-19T05:29:07;23.08;;;4.45;;
24547;SDS011;12713;51.624;4.924;2023-02-19T05:31:36;28.48;;;5.90;;
24547;SDS011;12713;51.624;4.924;2023-02-19T05:34:02;20.98;;;4.10;;
24547;SDS011;12713;51.624;4.924;2023-02-19T05:36:28;24.20;;;5.10;;
24547;SDS011;12713;51.624;4.924;2023-02-19T05:38:57;21.00;;;4.47;;
24547;SDS011;12713;51.624;4.924;2023-02-19T05:41:25;27.90;;;5.07;;
24547;SDS011;12713;51.624;4.924;2023-02-19T05:43:52;27.98;;;5.32;;
24547;SDS011;12713;51.624;4.924;2023-02-19T05:46:20;18.95;;;4.40;;
24547;SDS011;12713;51.624;4.924;2023-02-19T05:48:49;17.55;;;4.13;;
24547;SDS011;12713;51.624;4.924;2023-02-19T05:51:16;16.48;;;4.03;;
24547;SDS011;12713;51.624;4.924;2023-02-19T05:53:43;14.50;;;3.75;;
24547;SDS011;12713;51.624;4.924;2023-02-19T05:56:51;25.52;;;5.45;;
24547;SDS011;12713;51.624;4.924;2023-02-19T05:59:00;16.60;;;4.15;;
24547;SDS011;12713;51.624;4.924;2023-02-19T06:01:28;21.77;;;5.13;;
24547;SDS011;12713;51.624;4.924;2023-02-19T06:03:55;16.55;;;3.33;;
24547;SDS011;12713;51.624;4.924;2023-02-19T06:06:24;20.17;;;4.00;;
24547;SDS011;12713;51.624;4.924;2023-02-19T06:08:51;18.88;;;4.60;;
24547;SDS011;12713;51.624;4.924;2023-02-19T06:11:17;24.48;;;4.85;;
24547;SDS011;12713;51.624;4.924;2023-02-19T06:13:43;21.83;;;4.18;;
24547;SDS011;12713;51.624;4.924;2023-02-19T06:16:09;26.77;;;5.22;;
24547;SDS011;12713;51.624;4.924;2023-02-19T06:18:36;21.67;;;5.80;;
24547;SDS011;12713;51.624;4.924;2023-02-19T06:21:04;20.67;;;5.78;;
24547;SDS011;12713;51.624;4.924;2023-02-19T06:23:31;17.80;;;5.00;;
24547;SDS011;12713;51.624;4.924;2023-02-19T06:26:05;23.17;;;5.57;;
24547;SDS011;12713;51.624;4.924;2023-02-19T06:28:33;19.35;;;4.90;;
24547;SDS011;12713;51.624;4.924;2023-02-19T06:30:59;21.40;;;4.80;;
24547;SDS011;12713;51.624;4.924;2023-02-19T06:33:26;28.73;;;5.18;;
24547;SDS011;12713;51.624;4.924;2023-02-19T06:35:52;23.52;;;6.10;;
24547;SDS011;12713;51.624;4.924;2023-02-19T06:38:19;16.55;;;4.90;;
24547;SDS011;12713;51.624;4.924;2023-02-19T06:40:46;21.65;;;5.65;;
24547;SDS011;12713;51.624;4.924;2023-02-19T06:43:15;17.30;;;5.07;;
24547;SDS011;12713;51.624;4.924;2023-02-19T06:45:41;21.05;;;5.05;;
24547;SDS011;12713;51.624;4.924;2023-02-19T06:48:07;17.17;;;5.28;;
24547;SDS011;12713;51.624;4.924;2023-02-19T06:50:33;18.80;;;7.53;;
24547;SDS011;12713;51.624;4.924;2023-02-19T06:52:59;17.15;;;5.72;;
24547;SDS011;12713;51.624;4.924;2023-02-19T06:55:25;21.00;;;5.85;;
24547;SDS011;12713;51.624;4.924;2023-02-19T06:57:51;12.73;;;5.22;;
24547;SDS011;12713;51.624;4.924;2023-02-19T07:00:17;24.92;;;6.88;;
24547;SDS011;12713;51.624;4.924;2023-02-19T07:02:43;17.63;;;6.35;;
24547;SDS011;12713;51.624;4.924;2023-02-19T07:05:09;24.02;;;7.00;;
24547;SDS011;12713;51.624;4.924;2023-02-19T07:07:35;23.95;;;6.68;;
24547;SDS011;12713;51.624;4.924;2023-02-19T07:10:01;22.05;;;6.90;;
24547;SDS011;12713;51.624;4.924;2023-02-19T07:12:27;24.00;;;6.40;;
24547;SDS011;12713;51.624;4.924;2023-02-19T07:14:53;18.50;;;5.85;;
24547;SDS011;12713;51.624;4.924;2023-02-19T07:17:19;18.08;;;6.07;;
24547;SDS011;12713;51.624;4.924;2023-02-19T07:19:45;22.80;;;6.97;;
24547;SDS011;12713;51.624;4.924;2023-02-19T07:22:11;27.20;;;6.25;;
24547;SDS011;12713;51.624;4.924;2023-02-19T07:24:37;18.95;;;6.55;;
24547;SDS011;12713;51.624;4.924;2023-02-19T07:27:03;24.75;;;6.40;;
24547;SDS011;12713;51.624;4.924;2023-02-19T07:29:29;20.05;;;5.72;;
24547;SDS011;12713;51.624;4.924;2023-02-19T07:31:55;18.73;;;6.20;;
24547;SDS011;12713;51.624;4.924;2023-02-19T07:34:21;24.02;;;6.05;;
24547;SDS011;12713;51.624;4.924;2023-02-19T07:36:47;26.77;;;5.82;;
24547;SDS011;12713;51.624;4.924;2023-02-19T07:39:13;23.73;;;6.70;;
24547;SDS011;12713;51.624;4.924;2023-02-19T07:41:39;20.17;;;5.85;;
24547;SDS011;12713;51.624;4.924;2023-02-19T07:44:06;23.67;;;6.18;;
24547;SDS011;12713;51.624;4.924;2023-02-19T07:46:32;18.40;;;5.45;;
24547;SDS011;12713;51.624;4.924;2023-02-19T07:48:58;18.75;;;5.38;;
24547;SDS011;12713;51.624;4.924;2023-02-19T07:51:24;22.90;;;5.30;;
24547;SDS011;12713;51.624;4.924;2023-02-19T07:53:50;14.75;;;5.22;;
24547;SDS011;12713;51.624;4.924;2023-02-19T07:56:17;17.35;;;5.00;;
24547;SDS011;12713;51.624;4.924;2023-02-19T07:58:43;19.75;;;5.55;;
24547;SDS011;12713;51.624;4.924;2023-02-19T08:01:17;18.05;;;5.65;;
24547;SDS011;12713;51.624;4.924;2023-02-19T08:03:43;13.55;;;4.47;;
24547;SDS011;12713;51.624;4.924;2023-02-19T08:06:10;11.95;;;4.97;;
24547;SDS011;12713;51.624;4.924;2023-02-19T08:08:37;18.38;;;5.07;;
24547;SDS011;12713;51.624;4.924;2023-02-19T08:11:04;15.35;;;4.38;;
24547;SDS011;12713;51.624;4.924;2023-02-19T08:13:49;15.93;;;3.65;;
24547;SDS011;12713;51.624;4.924;2023-02-19T08:16:16;12.30;;;4.22;;
24547;SDS011;12713;51.624;4.924;2023-02-19T08:18:44;11.93;;;4.38;;
24547;SDS011;12713;51.624;4.924;2023-02-19T08:21:11;12.18;;;4.28;;
24547;SDS011;12713;51.624;4.924;2023-02-19T08:23:42;11.82;;;4.57;;
24547;SDS011;12713;51.624;4.924;2023-02-19T08:26:08;13.35;;;4.60;;
24547;SDS011;12713;51.624;4.924;2023-02-19T08:28:34;12.70;;;4.65;;
24547;SDS011;12713;51.624;4.924;2023-02-19T08:31:01;18.00;;;4.82;;
24547;SDS011;12713;51.624;4.924;2023-02-19T08:33:30;19.10;;;5.03;;
24547;SDS011;12713;51.624;4.924;2023-02-19T08:36:00;14.82;;;4.57;;
24547;SDS011;12713;51.624;4.924;2023-02-19T08:38:28;18.55;;;4.82;;
24547;SDS011;12713;51.624;4.924;2023-02-19T08:40:54;14.57;;;5.18;;
24547;SDS011;12713;51.624;4.924;2023-02-19T08:43:20;15.88;;;6.18;;
24547;SDS011;12713;51.624;4.924;2023-02-19T08:45:46;18.63;;;5.50;;
24547;SDS011;12713;51.624;4.924;2023-02-19T08:48:12;14.95;;;4.60;;
24547;SDS011;12713;51.624;4.924;2023-02-19T08:50:39;17.27;;;6.07;;
24547;SDS011;12713;51.624;4.924;2023-02-19T08:53:05;14.90;;;5.43;;
24547;SDS011;12713;51.624;4.924;2023-02-19T08:55:32;20.25;;;5.07;;
24547;SDS011;12713;51.624;4.924;2023-02-19T08:57:58;14.98;;;4.47;;
24547;SDS011;12713;51.624;4.924;2023-02-19T09:00:24;16.73;;;5.15;;
24547;SDS011;12713;51.624;4.924;2023-02-19T09:02:51;18.92;;;5.28;;
24547;SDS011;12713;51.624;4.924;2023-02-19T09:05:17;12.90;;;4.88;;
24547;SDS011;12713;51.624;4.924;2023-02-19T09:07:43;14.90;;;5.63;;
24547;SDS011;12713;51.624;4.924;2023-02-19T09:10:10;18.55;;;7.35;;
24547;SDS011;12713;51.624;4.924;2023-02-19T09:12:36;20.30;;;6.68;;
24547;SDS011;12713;51.624;4.924;2023-02-19T09:15:04;18.48;;;6.50;;
24547;SDS011;12713;51.624;4.924;2023-02-19T09:17:30;15.18;;;7.18;;
24547;SDS011;12713;51.624;4.924;2023-02-19T09:19:56;17.38;;;7.45;;
24547;SDS011;12713;51.624;4.924;2023-02-19T09:22:22;16.08;;;6.70;;
24547;SDS011;12713;51.624;4.924;2023-02-19T09:24:48;18.90;;;7.78;;
24547;SDS011;12713;51.624;4.924;2023-02-19T09:27:28;14.88;;;6.10;;
24547;SDS011;12713;51.624;4.924;2023-02-19T09:29:56;12.45;;;6.28;;
24547;SDS011;12713;51.624;4.924;2023-02-19T09:32:22;23.33;;;6.85;;
24547;SDS011;12713;51.624;4.924;2023-02-19T09:34:48;15.38;;;5.32;;
24547;SDS011;12713;51.624;4.924;2023-02-19T09:37:14;14.98;;;5.95;;
24547;SDS011;12713;51.624;4.924;2023-02-19T09:39:40;12.38;;;5.30;;
24547;SDS011;12713;51.624;4.924;2023-02-19T09:42:14;20.85;;;6.65;;
24547;SDS011;12713;51.624;4.924;2023-02-19T09:44:41;23.88;;;6.40;;
24547;SDS011;12713;51.624;4.924;2023-02-19T09:47:15;15.85;;;6.00;;
24547;SDS011;12713;51.624;4.924;2023-02-19T09:49:46;19.63;;;7.30;;
24547;SDS011;12713;51.624;4.924;2023-02-19T09:54:44;11.90;;;6.53;;
24547;SDS011;12713;51.624;4.924;2023-02-19T09:57:15;15.77;;;7.95;;
24547;SDS011;12713;51.624;4.924;2023-02-19T09:59:47;18.92;;;8.48;;
24547;SDS011;12713;51.624;4.924;2023-02-19T10:02:17;18.95;;;8.70;;
24547;SDS011;12713;51.624;4.924;2023-02-19T10:04:46;13.80;;;7.90;;
24547;SDS011;12713;51.624;4.924;2023-02-19T10:07:17;16.52;;;8.10;;
24547;SDS011;12713;51.624;4.924;2023-02-19T10:10:17;14.45;;;7.88;;
24547;SDS011;12713;51.624;4.924;2023-02-19T10:12:32;17.00;;;6.43;;
24547;SDS011;12713;51.624;4.924;2023-02-19T10:15:10;19.02;;;5.93;;
24547;SDS011;12713;51.624;4.924;2023-02-19T10:17:37;17.10;;;6.07;;
24547;SDS011;12713;51.624;4.924;2023-02-19T10:20:03;10.80;;;5.63;;
24547;SDS011;12713;51.624;4.924;2023-02-19T10:22:32;13.73;;;5.32;;
24547;SDS011;12713;51.624;4.924;2023-02-19T10:25:01;15.77;;;5.93;;
24547;SDS011;12713;51.624;4.924;2023-02-19T10:27:28;15.95;;;6.22;;
24547;SDS011;12713;51.624;4.924;2023-02-19T10:29:57;10.50;;;5.30;;
24547;SDS011;12713;51.624;4.924;2023-02-19T10:32:25;15.45;;;6.80;;
24547;SDS011;12713;51.624;4.924;2023-02-19T10:35:10;14.32;;;6.75;;
24547;SDS011;12713;51.624;4.924;2023-02-19T10:40:15;19.85;;;7.22;;
24547;SDS011;12713;51.624;4.924;2023-02-19T10:42:45;13.95;;;5.68;;
24547;SDS011;12713;51.624;4.924;2023-02-19T10:45:22;16.35;;;5.00;;
24547;SDS011;12713;51.624;4.924;2023-02-19T10:47:51;14.13;;;5.30;;
24547;SDS011;12713;51.624;4.924;2023-02-19T10:50:29;9.77;;;4.38;;
24547;SDS011;12713;51.624;4.924;2023-02-19T10:52:56;8.45;;;3.75;;
24547;SDS011;12713;51.624;4.924;2023-02-19T10:55:30;12.07;;;3.92;;
24547;SDS011;12713;51.624;4.924;2023-02-19T11:00:44;8.00;;;3.50;;
24547;SDS011;12713;51.624;4.924;2023-02-19T11:06:09;4.88;;;3.22;;
24547;SDS011;12713;51.624;4.924;2023-02-19T11:08:56;7.93;;;3.40;;
24547;SDS011;12713;51.624;4.924;2023-02-19T11:11:36;11.70;;;3.35;;
24547;SDS011;12713;51.624;4.924;2023-02-19T11:14:13;9.30;;;3.58;;
24547;SDS011;12713;51.624;4.924;2023-02-19T11:16:53;6.63;;;3.60;;
24547;SDS011;12713;51.624;4.924;2023-02-19T11:19:43;11.27;;;4.53;;
24547;SDS011;12713;51.624;4.924;2023-02-19T11:22:23;10.63;;;2.72;;
24547;SDS011;12713;51.624;4.924;2023-02-19T11:25:06;11.82;;;2.75;;
24547;SDS011;12713;51.624;4.924;2023-02-19T11:28:43;11.50;;;2.83;;
24547;SDS011;12713;51.624;4.924;2023-02-19T11:30:45;8.70;;;3.10;;
24547;SDS011;12713;51.624;4.924;2023-02-19T11:35:56;6.82;;;2.50;;
24547;SDS011;12713;51.624;4.924;2023-02-19T11:38:22;4.60;;;3.05;;
24547;SDS011;12713;51.624;4.924;2023-02-19T11:43:31;5.45;;;2.58;;
24547;SDS011;12713;51.624;4.924;2023-02-19T11:51:02;4.18;;;1.65;;
24547;SDS011;12713;51.624;4.924;2023-02-19T11:53:30;3.45;;;1.83;;
24547;SDS011;12713;51.624;4.924;2023-02-19T11:56:01;3.92;;;1.50;;
24547;SDS011;12713;51.624;4.924;2023-02-19T12:01:26;2.67;;;1.55;;
24547;SDS011;12713;51.624;4.924;2023-02-19T12:31:43;3.50;;;1.10;;
24547;SDS011;12713;51.624;4.924;2023-02-19T12:36:47;6.03;;;1.30;;
24547;SDS011;12713;51.624;4.924;2023-02-19T12:39:25;3.85;;;1.63;;
24547;SDS011;12713;51.624;4.924;2023-02-19T12:41:57;3.95;;;1.73;;
24547;SDS011;12713;51.624;4.924;2023-02-19T12:44:32;2.75;;;1.60;;
24547;SDS011;12713;51.624;4.924;2023-02-19T12:47:01;3.92;;;1.90;;
24547;SDS011;12713;51.624;4.924;2023-02-19T12:49:31;4.65;;;1.70;;
24547;SDS011;12713;51.624;4.924;2023-02-19T12:52:10;5.85;;;1.70;;
24547;SDS011;12713;51.624;4.924;2023-02-19T12:54:42;4.60;;;1.60;;
24547;SDS011;12713;51.624;4.924;2023-02-19T12:57:11;4.93;;;1.52;;
24547;SDS011;12713;51.624;4.924;2023-02-19T13:07:44;3.00;;;1.70;;
24547;SDS011;12713;51.624;4.924;2023-02-19T13:12:49;5.30;;;1.65;;
24547;SDS011;12713;51.624;4.924;2023-02-19T13:17:54;6.20;;;1.98;;
24547;SDS011;12713;51.624;4.924;2023-02-19T13:20:30;7.20;;;1.92;;
24547;SDS011;12713;51.624;4.924;2023-02-19T13:28:22;4.10;;;1.98;;
24547;SDS011;12713;51.624;4.924;2023-02-19T13:34:38;7.72;;;2.20;;
24547;SDS011;12713;51.624;4.924;2023-02-19T13:36:31;5.47;;;2.30;;
24547;SDS011;12713;51.624;4.924;2023-02-19T13:38:59;9.10;;;2.55;;
24547;SDS011;12713;51.624;4.924;2023-02-19T13:41:39;6.55;;;3.00;;
24547;SDS011;12713;51.624;4.924;2023-02-19T13:44:06;7.25;;;3.45;;
24547;SDS011;12713;51.624;4.924;2023-02-19T13:46:43;6.30;;;2.70;;
24547;SDS011;12713;51.624;4.924;2023-02-19T13:51:49;5.65;;;2.40;;
24547;SDS011;12713;51.624;4.924;2023-02-19T13:54:19;5.28;;;2.00;;
24547;SDS011;12713;51.624;4.924;2023-02-19T13:56:49;8.00;;;2.00;;
24547;SDS011;12713;51.624;4.924;2023-02-19T14:14:48;4.50;;;1.50;;
24547;SDS011;12713;51.624;4.924;2023-02-19T14:24:53;1.92;;;1.73;;
24547;SDS011;12713;51.624;4.924;2023-02-19T14:27:20;2.67;;;1.67;;
24547;SDS011;12713;51.624;4.924;2023-02-19T14:29:46;1.90;;;1.50;;
24547;SDS011;12713;51.624;4.924;2023-02-19T14:32:17;3.22;;;1.40;;
24547;SDS011;12713;51.624;4.924;2023-02-19T14:34:49;4.38;;;1.67;;
24547;SDS011;12713;51.624;4.924;2023-02-19T14:37:16;3.35;;;1.75;;
24547;SDS011;12713;51.624;4.924;2023-02-19T14:39:44;2.67;;;1.52;;
24547;SDS011;12713;51.624;4.924;2023-02-19T14:42:19;5.60;;;1.73;;
24547;SDS011;12713;51.624;4.924;2023-02-19T14:47:14;2.97;;;1.80;;
24547;SDS011;12713;51.624;4.924;2023-02-19T14:52:13;6.90;;;2.30;;
24547;SDS011;12713;51.624;4.924;2023-02-19T14:54:47;4.20;;;2.13;;
24547;SDS011;12713;51.624;4.924;2023-02-19T14:57:21;6.10;;;3.08;;
24547;SDS011;12713;51.624;4.924;2023-02-19T14:59:55;4.45;;;3.13;;
24547;SDS011;12713;51.624;4.924;2023-02-19T15:02:23;5.80;;;3.05;;
24547;SDS011;12713;51.624;4.924;2023-02-19T15:04:50;3.80;;;2.30;;
24547;SDS011;12713;51.624;4.924;2023-02-19T15:07:18;4.38;;;1.77;;
24547;SDS011;12713;51.624;4.924;2023-02-19T15:09:49;4.35;;;1.90;;
24547;SDS011;12713;51.624;4.924;2023-02-19T15:12:20;4.63;;;2.30;;
24547;SDS011;12713;51.624;4.924;2023-02-19T15:14:53;1.38;;;1.17;;
24547;SDS011;12713;51.624;4.924;2023-02-19T15:17:30;2.03;;;1.27;;
24547;SDS011;12713;51.624;4.924;2023-02-19T15:19:57;1.60;;;0.80;;
24547;SDS011;12713;51.624;4.924;2023-02-19T15:22:25;1.55;;;1.15;;
24547;SDS011;12713;51.624;4.924;2023-02-19T15:24:53;2.85;;;1.13;;
24547;SDS011;12713;51.624;4.924;2023-02-19T15:27:19;1.23;;;1.10;;
24547;SDS011;12713;51.624;4.924;2023-02-19T15:29:49;2.05;;;1.10;;
24547;SDS011;12713;51.624;4.924;2023-02-19T15:32:17;1.98;;;1.35;;
24547;SDS011;12713;51.624;4.924;2023-02-19T15:34:52;1.40;;;1.30;;
24547;SDS011;12713;51.624;4.924;2023-02-19T15:37:18;3.80;;;1.67;;
24547;SDS011;12713;51.624;4.924;2023-02-19T15:39:45;1.40;;;1.13;;
24547;SDS011;12713;51.624;4.924;2023-02-19T15:42:25;2.42;;;1.58;;
24547;SDS011;12713;51.624;4.924;2023-02-19T15:44:54;2.92;;;1.50;;
24547;SDS011;12713;51.624;4.924;2023-02-19T15:49:55;1.25;;;1.02;;
24547;SDS011;12713;51.624;4.924;2023-02-19T15:52:27;6.07;;;1.40;;
24547;SDS011;12713;51.624;4.924;2023-02-19T15:57:30;2.17;;;1.20;;
24547;SDS011;12713;51.624;4.924;2023-02-19T16:02:29;2.77;;;1.00;;
24547;SDS011;12713;51.624;4.924;2023-02-19T16:04:55;1.17;;;0.88;;
24547;SDS011;12713;51.624;4.924;2023-02-19T16:09:47;3.00;;;1.02;;
24547;SDS011;12713;51.624;4.924;2023-02-19T16:12:21;2.78;;;1.10;;
24547;SDS011;12713;51.624;4.924;2023-02-19T16:14:47;5.47;;;1.02;;
24547;SDS011;12713;51.624;4.924;2023-02-19T16:17:15;5.00;;;1.10;;
24547;SDS011;12713;51.624;4.924;2023-02-19T16:22:15;3.28;;;0.80;;
24547;SDS011;12713;51.624;4.924;2023-02-19T16:24:43;2.97;;;0.60;;
24547;SDS011;12713;51.624;4.924;2023-02-19T16:27:13;4.20;;;0.90;;
24547;SDS011;12713;51.624;4.924;2023-02-19T16:29:50;1.65;;;0.90;;
24547;SDS011;12713;51.624;4.924;2023-02-19T16:32:16;2.33;;;0.60;;
24547;SDS011;12713;51.624;4.924;2023-02-19T16:34:46;3.65;;;0.60;;
24547;SDS011;12713;51.624;4.924;2023-02-19T16:40:25;1.95;;;0.70;;
24547;SDS011;12713;51.624;4.924;2023-02-19T16:45:16;4.88;;;1.10;;
24547;SDS011;12713;51.624;4.924;2023-02-19T16:47:42;2.53;;;1.30;;
24547;SDS011;12713;51.624;4.924;2023-02-19T16:50:22;3.30;;;1.58;;
24547;SDS011;12713;51.624;4.924;2023-02-19T16:52:56;4.43;;;2.30;;
24547;SDS011;12713;51.624;4.924;2023-02-19T16:55:22;4.25;;;2.47;;
24547;SDS011;12713;51.624;4.924;2023-02-19T16:57:52;2.15;;;1.88;;
24547;SDS011;12713;51.624;4.924;2023-02-19T17:00:25;3.92;;;2.05;;
24547;SDS011;12713;51.624;4.924;2023-02-19T17:02:53;2.08;;;1.88;;
24547;SDS011;12713;51.624;4.924;2023-02-19T17:05:19;1.90;;;1.48;;
24547;SDS011;12713;51.624;4.924;2023-02-19T17:07:46;2.88;;;1.65;;
24547;SDS011;12713;51.624;4.924;2023-02-19T17:10:23;2.00;;;1.48;;
24547;SDS011;12713;51.624;4.924;2023-02-19T17:12:52;2.88;;;1.30;;
24547;SDS011;12713;51.624;4.924;2023-02-19T17:15:21;4.40;;;1.50;;
24547;SDS011;12713;51.624;4.924;2023-02-19T17:17:48;2.08;;;1.67;;
24547;SDS011;12713;51.624;4.924;2023-02-19T17:22:43;3.53;;;1.30;;
24547;SDS011;12713;51.624;4.924;2023-02-19T17:25:09;2.38;;;1.73;;
24547;SDS011;12713;51.624;4.924;2023-02-19T17:27:35;2.75;;;1.92;;
24547;SDS011;12713;51.624;4.924;2023-02-19T17:30:01;2.17;;;1.75;;
24547;SDS011;12713;51.624;4.924;2023-02-19T17:32:27;2.15;;;1.42;;